Time;durP1;ratioP1;P1;durP2;ratioP2;P2;SDS_P1;SDS_P2;PMS_P1;PMS_P2;Temp;Humidity;BMP_temperature;BMP_pressure;BME280_temperature;BME280_humidity;BME280_pressure;Samples;Min_cycle;Max_cycle;Signal;HPM_P1;HPM_P2
2021/11/21 00:00:43;;;;;;;38.03;26.10;;;;;;;-140.05;100.00;61859.38;4875746;29;20435;-65
2021/11/21 00:03:10;;;;;;;37.33;24.43;;;;;;;-140.05;100.00;61859.38;4875894;29;20546;-66
2021/11/21 00:05:40;;;;;;;36.20;24.60;;;;;;;-140.05;100.00;61859.38;4864308;29;20459;-66
2021/11/21 00:08:09;;;;;;;34.70;23.83;;;;;;;-140.05;100.00;61859.38;4866971;29;20454;-65
2021/11/21 00:10:36;;;;;;;33.93;23.77;;;;;;;-140.05;100.00;61859.38;4866625;29;20462;-66
2021/11/21 00:13:05;;;;;;;38.33;25.50;;;;;;;-140.05;100.00;61859.38;4859725;29;20451;-65
2021/11/21 00:15:33;;;;;;;31.70;22.83;;;;;;;-140.05;100.00;61859.38;4863387;29;20327;-65
2021/11/21 00:18:02;;;;;;;43.17;25.23;;;;;;;-140.05;100.00;61859.38;4865458;29;21286;-65
2021/11/21 00:20:30;;;;;;;31.50;22.23;;;;;;;-140.05;100.00;61859.38;4863436;29;20487;-66
2021/11/21 00:22:57;;;;;;;31.88;21.63;;;;;;;-140.05;100.00;61859.38;4866784;29;20493;-65
2021/11/21 00:25:23;;;;;;;34.27;21.47;;;;;;;-140.05;100.00;61859.38;4866582;29;20210;-65
2021/11/21 00:27:50;;;;;;;31.23;21.77;;;;;;;-140.05;100.00;61859.38;4874899;29;20451;-66
2021/11/21 00:30:18;;;;;;;34.03;21.03;;;;;;;-140.05;100.00;61859.38;4889770;29;20939;-66
2021/11/21 00:32:46;;;;;;;30.00;20.47;;;;;;;-140.05;100.00;61859.38;4875413;29;20549;-66
2021/11/21 00:35:13;;;;;;;29.10;19.17;;;;;;;-140.05;100.00;61859.38;4875268;29;20443;-65
2021/11/21 00:37:40;;;;;;;31.27;20.57;;;;;;;-140.05;100.00;61859.38;4872462;29;20534;-67
2021/11/21 00:40:08;;;;;;;32.00;20.55;;;;;;;-140.05;100.00;61859.38;4874160;29;20474;-65
2021/11/21 00:42:37;;;;;;;30.13;21.00;;;;;;;-140.05;100.00;61859.38;4875000;29;20243;-65
2021/11/21 00:45:07;;;;;;;31.40;20.70;;;;;;;-140.05;100.00;61859.38;4874805;29;20202;-65
2021/11/21 00:47:34;;;;;;;36.05;22.88;;;;;;;-140.05;100.00;61859.38;4871827;29;20305;-66
2021/11/21 00:50:03;;;;;;;28.33;20.90;;;;;;;-140.05;100.00;61859.38;4873847;29;20230;-65
2021/11/21 00:52:33;;;;;;;31.20;20.98;;;;;;;-140.05;100.00;61859.38;4874415;29;20939;-65
2021/11/21 00:55:18;;;;;;;33.20;21.17;;;;;;;-140.05;100.00;61859.38;4874857;29;20663;-64
2021/11/21 00:57:45;;;;;;;34.03;21.40;;;;;;;-140.05;100.00;61859.38;4874796;29;20541;-65
2021/11/21 01:00:15;;;;;;;30.83;20.93;;;;;;;-140.05;100.00;61859.38;4875366;29;20447;-65
2021/11/21 01:02:43;;;;;;;32.43;21.37;;;;;;;-140.05;100.00;61859.38;4864204;29;20590;-65
2021/11/21 01:05:11;;;;;;;29.38;20.88;;;;;;;-140.05;100.00;61859.38;4865856;29;20844;-66
2021/11/21 01:07:39;;;;;;;30.13;21.10;;;;;;;-140.05;100.00;61859.38;4878302;29;20198;-66
2021/11/21 01:10:10;;;;;;;30.75;21.30;;;;;;;-140.05;100.00;61859.38;4868907;29;20521;-67
2021/11/21 01:12:40;;;;;;;27.48;20.33;;;;;;;-140.05;100.00;61859.38;4867368;29;20242;-66
2021/11/21 01:15:13;;;;;;;27.63;19.50;;;;;;;-140.05;100.00;61859.38;4867948;29;20895;-65
2021/11/21 01:17:40;;;;;;;28.15;18.45;;;;;;;-140.05;100.00;61859.38;4877971;29;20455;-65
2021/11/21 01:20:09;;;;;;;26.80;17.38;;;;;;;-140.05;100.00;61859.38;4866984;29;20349;-65
2021/11/21 01:22:37;;;;;;;25.33;17.70;;;;;;;-140.05;100.00;61859.38;4865466;29;20219;-66
2021/11/21 01:25:07;;;;;;;24.45;17.48;;;;;;;-140.05;100.00;61859.38;4866692;29;20989;-65
2021/11/21 01:27:36;;;;;;;21.87;15.27;;;;;;;-140.05;100.00;61859.38;4866642;29;20213;-65
2021/11/21 01:30:05;;;;;;;25.13;15.95;;;;;;;-140.05;100.00;61859.38;4876934;29;20514;-65
2021/11/21 01:32:33;;;;;;;22.15;15.75;;;;;;;-140.05;100.00;61859.38;4875137;29;20218;-67
2021/11/21 01:35:00;;;;;;;23.40;15.55;;;;;;;-140.05;100.00;61859.38;4876817;29;20253;-65
2021/11/21 01:37:27;;;;;;;20.43;14.87;;;;;;;-140.05;100.00;61859.38;4877381;29;20641;-65
2021/11/21 01:39:54;;;;;;;18.75;13.90;;;;;;;-140.05;100.00;61859.38;4877175;29;20479;-65
2021/11/21 01:42:22;;;;;;;20.35;14.00;;;;;;;-140.05;100.00;61859.38;4863083;29;20281;-66
2021/11/21 01:44:54;;;;;;;20.52;13.80;;;;;;;-140.05;100.00;61859.38;4866274;29;20210;-66
2021/11/21 01:47:21;;;;;;;18.38;13.25;;;;;;;-140.05;100.00;61859.38;4867768;29;20253;-67
2021/11/21 01:49:49;;;;;;;15.82;11.75;;;;;;;-140.05;100.00;61859.38;4866563;29;20199;-64
2021/11/21 01:52:16;;;;;;;18.52;13.13;;;;;;;-140.05;100.00;61859.38;4866113;29;21080;-65
2021/11/21 01:54:43;;;;;;;16.65;11.80;;;;;;;-140.05;100.00;61859.38;4866896;29;20210;-65
2021/11/21 01:57:13;;;;;;;16.40;11.27;;;;;;;-140.05;100.00;61859.38;4868688;29;20214;-65
2021/11/21 01:59:40;;;;;;;20.40;11.40;;;;;;;-140.05;100.00;61859.38;4868807;29;20592;-66
2021/11/21 02:02:07;;;;;;;16.23;10.68;;;;;;;-140.05;100.00;61859.38;4877189;29;20310;-65
2021/11/21 02:04:35;;;;;;;14.85;11.15;;;;;;;-140.05;100.00;61859.38;4877835;29;20226;-66
2021/11/21 02:07:02;;;;;;;13.77;10.57;;;;;;;-140.05;100.00;61859.38;4877246;29;20257;-66
2021/11/21 02:09:29;;;;;;;20.52;13.23;;;;;;;-140.05;100.00;61859.38;4877676;29;20613;-66
2021/11/21 02:11:56;;;;;;;18.15;12.57;;;;;;;-140.05;100.00;61859.38;4876994;29;20198;-66
2021/11/21 02:14:24;;;;;;;17.92;11.82;;;;;;;-140.05;100.00;61859.38;4876621;29;20694;-64
2021/11/21 02:16:51;;;;;;;14.90;11.27;;;;;;;-140.05;100.00;61859.38;4877580;29;20333;-65
2021/11/21 02:19:18;;;;;;;14.90;10.77;;;;;;;-140.05;100.00;61859.38;4871056;29;20208;-65
2021/11/21 02:21:46;;;;;;;14.38;10.65;;;;;;;-140.05;100.00;61859.38;4864699;29;20269;-66
2021/11/21 02:24:13;;;;;;;15.85;10.93;;;;;;;-140.05;100.00;61859.38;4867417;29;20235;-66
2021/11/21 02:26:41;;;;;;;14.82;10.10;;;;;;;-140.05;100.00;61859.38;4878351;29;20682;-65
2021/11/21 02:29:10;;;;;;;16.05;11.00;;;;;;;-140.05;100.00;61859.38;4867214;29;20290;-65
2021/11/21 02:31:38;;;;;;;16.08;10.73;;;;;;;-140.05;100.00;61859.38;4877154;29;20211;-66
2021/11/21 02:34:05;;;;;;;15.27;10.88;;;;;;;-140.05;100.00;61859.38;4877198;29;20211;-65
2021/11/21 02:36:32;;;;;;;15.85;11.07;;;;;;;-140.05;100.00;61859.38;4877086;29;20309;-65
2021/11/21 02:39:00;;;;;;;15.45;10.30;;;;;;;-140.05;100.00;61859.38;4876440;29;20256;-66
2021/11/21 02:41:27;;;;;;;19.00;11.20;;;;;;;-140.05;100.00;61859.38;4877246;29;20194;-64
2021/11/21 02:43:54;;;;;;;17.58;11.90;;;;;;;-140.05;100.00;61859.38;4876653;29;20294;-64
2021/11/21 02:46:21;;;;;;;20.42;12.35;;;;;;;-140.05;100.00;61859.38;4876906;29;20282;-65
2021/11/21 02:48:50;;;;;;;22.33;14.25;;;;;;;-140.05;100.00;61859.38;4875976;29;20381;-65
2021/11/21 02:51:17;;;;;;;25.38;14.27;;;;;;;-140.05;100.00;61859.38;4863165;29;20305;-66
2021/11/21 02:53:45;;;;;;;20.88;14.38;;;;;;;-140.05;100.00;61859.38;4865162;29;21152;-66
2021/11/21 02:56:17;;;;;;;27.38;16.35;;;;;;;-140.05;100.00;61859.38;4864977;29;20203;-64
2021/11/21 02:58:46;;;;;;;28.67;17.42;;;;;;;-140.05;100.00;61859.38;4862597;29;20206;-66
2021/11/21 03:01:21;;;;;;;34.03;19.38;;;;;;;-140.05;100.00;61859.38;4867254;29;20202;-65
2021/11/21 03:03:49;;;;;;;29.95;17.92;;;;;;;-140.05;100.00;61859.38;4867390;29;20226;-65
2021/11/21 03:06:16;;;;;;;30.20;18.58;;;;;;;-140.05;100.00;61859.38;4869261;29;20215;-65
2021/11/21 03:08:44;;;;;;;30.75;19.05;;;;;;;-140.05;100.00;61859.38;4875860;29;20209;-65
2021/11/21 03:11:31;;;;;;;31.65;20.60;;;;;;;-140.05;100.00;61859.38;4865310;29;20927;-66
2021/11/21 03:14:00;;;;;;;34.42;20.85;;;;;;;-140.05;100.00;61859.38;4867355;29;20270;-65
2021/11/21 03:16:27;;;;;;;30.88;20.52;;;;;;;-140.05;100.00;61859.38;4867773;29;20207;-66
2021/11/21 03:18:55;;;;;;;29.27;19.15;;;;;;;-140.05;100.00;61859.38;4864788;29;20411;-67
2021/11/21 03:21:22;;;;;;;28.38;19.70;;;;;;;-140.05;100.00;61859.38;4846914;29;20210;-65
2021/11/21 03:23:49;;;;;;;32.33;20.15;;;;;;;-140.05;100.00;61859.38;4854719;29;20317;-64
2021/11/21 03:26:17;;;;;;;32.08;19.65;;;;;;;-140.05;100.00;61859.38;4863522;29;20266;-64
2021/11/21 03:28:45;;;;;;;32.30;19.48;;;;;;;-140.05;100.00;61859.38;4875161;29;20241;-66
2021/11/21 03:31:13;;;;;;;35.00;20.85;;;;;;;-140.05;100.00;61859.38;4875812;29;20892;-65
2021/11/21 03:33:40;;;;;;;29.40;20.02;;;;;;;-140.05;100.00;61859.38;4875232;29;20218;-65
2021/11/21 03:36:07;;;;;;;29.85;19.63;;;;;;;-140.05;100.00;61859.38;4875470;29;20213;-66
2021/11/21 03:38:34;;;;;;;29.40;19.95;;;;;;;-140.05;100.00;61859.38;4875853;29;20254;-68
2021/11/21 03:41:03;;;;;;;29.20;20.10;;;;;;;-140.05;100.00;61859.38;4876199;29;20215;-65
2021/11/21 03:43:30;;;;;;;30.00;20.02;;;;;;;-140.05;100.00;61859.38;4875715;29;20234;-65
2021/11/21 03:45:57;;;;;;;32.88;21.50;;;;;;;-140.05;100.00;61859.38;4875852;29;20197;-65
2021/11/21 03:48:25;;;;;;;34.75;20.73;;;;;;;-140.05;100.00;61859.38;4875593;29;20210;-65
2021/11/21 03:50:52;;;;;;;33.85;21.13;;;;;;;-140.05;100.00;61859.38;4864138;29;20753;-65
2021/11/21 03:53:20;;;;;;;31.52;20.27;;;;;;;-140.05;100.00;61859.38;4867171;29;20238;-65
2021/11/21 03:55:47;;;;;;;33.45;21.15;;;;;;;-140.05;100.00;61859.38;4864767;29;20301;-64
2021/11/21 03:58:15;;;;;;;31.15;21.40;;;;;;;-140.05;100.00;61859.38;4864011;29;20233;-65
2021/11/21 04:00:45;;;;;;;31.85;21.90;;;;;;;-140.05;100.00;61859.38;4865249;29;20217;-65
2021/11/21 04:03:15;;;;;;;29.20;20.90;;;;;;;-140.05;100.00;61859.38;4875440;29;20223;-66
2021/11/21 04:05:42;;;;;;;34.33;23.98;;;;;;;-140.05;100.00;61859.38;4876451;29;20217;-65
2021/11/21 04:08:10;;;;;;;38.38;25.25;;;;;;;-140.05;100.00;61859.38;4875336;29;20708;-66
2021/11/21 04:10:37;;;;;;;34.75;24.02;;;;;;;-140.05;100.00;61859.38;4875152;29;20190;-65
2021/11/21 04:13:05;;;;;;;38.13;26.10;;;;;;;-140.05;100.00;61859.38;4872482;29;20199;-63
2021/11/21 04:15:32;;;;;;;40.63;27.30;;;;;;;-140.05;100.00;61859.38;4875364;29;20262;-63
2021/11/21 04:17:59;;;;;;;39.65;25.25;;;;;;;-140.05;100.00;61859.38;4875283;29;20202;-65
2021/11/21 04:20:27;;;;;;;41.70;25.20;;;;;;;-140.05;100.00;61859.38;4875256;29;20294;-66
2021/11/21 04:22:54;;;;;;;35.67;24.02;;;;;;;-140.05;100.00;61859.38;4875166;29;20222;-65
2021/11/21 04:25:21;;;;;;;44.03;26.10;;;;;;;-140.05;100.00;61859.38;4875595;29;20230;-64
2021/11/21 04:27:48;;;;;;;37.55;25.85;;;;;;;-140.05;100.00;61859.38;4871313;29;20214;-65
2021/11/21 04:30:16;;;;;;;39.08;25.15;;;;;;;-140.05;100.00;61859.38;4875410;29;20207;-65
2021/11/21 04:32:45;;;;;;;38.38;24.15;;;;;;;-140.05;100.00;61859.38;4874586;29;20203;-65
2021/11/21 04:35:15;;;;;;;36.05;24.83;;;;;;;-140.05;100.00;61859.38;4875125;29;20201;-67
2021/11/21 04:37:43;;;;;;;38.78;23.45;;;;;;;-140.05;100.00;61859.38;4875280;29;20199;-66
2021/11/21 04:40:11;;;;;;;37.63;22.35;;;;;;;-140.05;100.00;61859.38;4879623;29;20238;-66
2021/11/21 04:42:39;;;;;;;37.17;21.77;;;;;;;-140.05;100.00;61859.38;4876809;29;20651;-64
2021/11/21 04:45:07;;;;;;;37.30;23.08;;;;;;;-140.05;100.00;61859.38;4880625;29;20240;-65
2021/11/21 04:47:34;;;;;;;35.15;24.02;;;;;;;-140.05;100.00;61859.38;4893190;29;20597;-66
2021/11/21 04:50:04;;;;;;;36.55;23.17;;;;;;;-140.05;100.00;61859.38;4878662;29;20673;-65
2021/11/21 04:52:31;;;;;;;34.60;22.77;;;;;;;-140.05;100.00;61859.38;4878459;29;20230;-65
2021/11/21 04:54:58;;;;;;;34.58;22.33;;;;;;;-140.05;100.00;61859.38;4879376;29;20198;-65
2021/11/21 04:57:25;;;;;;;33.05;20.30;;;;;;;-140.05;100.00;61859.38;4875075;29;20427;-66
2021/11/21 04:59:52;;;;;;;32.58;20.55;;;;;;;-140.05;100.00;61859.38;4878525;29;20217;-65
2021/11/21 05:02:19;;;;;;;30.50;20.02;;;;;;;-140.05;100.00;61859.38;4878039;29;20190;-65
2021/11/21 05:04:46;;;;;;;31.60;19.20;;;;;;;-140.05;100.00;61859.38;4878258;29;20266;-64
2021/11/21 05:07:13;;;;;;;31.30;17.80;;;;;;;-140.05;100.00;61859.38;4879590;29;20293;-65
2021/11/21 05:09:40;;;;;;;21.75;14.52;;;;;;;-140.05;100.00;61859.38;4879751;29;20206;-66
2021/11/21 05:12:08;;;;;;;24.50;15.40;;;;;;;-140.05;100.00;61859.38;4879914;29;20310;-65
2021/11/21 05:14:35;;;;;;;22.23;13.98;;;;;;;-140.05;100.00;61859.38;4875561;29;20214;-65
2021/11/21 05:17:03;;;;;;;23.40;14.07;;;;;;;-140.05;100.00;61859.38;4879368;29;20214;-65
2021/11/21 05:19:30;;;;;;;22.23;14.50;;;;;;;-140.05;100.00;61859.38;4878352;29;20562;-66
2021/11/21 05:21:59;;;;;;;24.40;15.68;;;;;;;-140.05;100.00;61859.38;4877663;29;20206;-66
2021/11/21 05:24:27;;;;;;;24.27;14.45;;;;;;;-140.05;100.00;61859.38;4878770;29;20215;-65
2021/11/21 05:26:54;;;;;;;26.70;15.25;;;;;;;-140.05;100.00;61859.38;4878262;29;20310;-64
2021/11/21 05:29:21;;;;;;;22.85;14.13;;;;;;;-140.05;100.00;61859.38;4875023;29;20206;-65
2021/11/21 05:31:48;;;;;;;23.48;14.60;;;;;;;-140.05;100.00;61859.38;4877586;29;20230;-67
2021/11/21 05:34:15;;;;;;;23.90;14.63;;;;;;;-140.05;100.00;61859.38;4878312;29;20210;-66
2021/11/21 05:36:44;;;;;;;23.85;15.30;;;;;;;-140.05;100.00;61859.38;4877763;29;20230;-66
2021/11/21 05:39:13;;;;;;;22.60;15.50;;;;;;;-140.05;100.00;61859.38;4859234;29;20230;-66
2021/11/21 05:41:40;;;;;;;24.70;15.30;;;;;;;-140.05;100.00;61859.38;4859086;29;20359;-67
2021/11/21 05:44:07;;;;;;;23.23;15.57;;;;;;;-140.05;100.00;61859.38;4873502;29;20219;-66
2021/11/21 05:46:34;;;;;;;26.08;15.60;;;;;;;-140.05;100.00;61859.38;4859166;29;20211;-66
2021/11/21 05:49:02;;;;;;;25.48;15.80;;;;;;;-140.05;100.00;61859.38;4858887;29;20307;-66
2021/11/21 05:51:29;;;;;;;25.98;15.20;;;;;;;-140.05;100.00;61859.38;4864407;29;20206;-66
2021/11/21 05:53:56;;;;;;;24.55;15.60;;;;;;;-140.05;100.00;61859.38;4866263;29;20225;-65
2021/11/21 05:56:24;;;;;;;25.67;16.60;;;;;;;-140.05;100.00;61859.38;4866365;29;20802;-66
2021/11/21 05:58:51;;;;;;;32.45;17.70;;;;;;;-140.05;100.00;61859.38;4866584;29;20203;-66
2021/11/21 06:01:19;;;;;;;37.03;23.13;;;;;;;-140.05;100.00;61859.38;4895852;29;21255;-67
2021/11/21 06:03:46;;;;;;;36.05;22.30;;;;;;;-140.05;100.00;61859.38;4876326;29;20215;-66
2021/11/21 06:06:13;;;;;;;41.47;24.27;;;;;;;-140.05;100.00;61859.38;4877314;29;20679;-66
2021/11/21 06:08:40;;;;;;;46.42;26.88;;;;;;;-140.05;100.00;61859.38;4876845;29;20297;-66
2021/11/21 06:11:07;;;;;;;50.92;28.27;;;;;;;-140.05;100.00;61859.38;4877275;29;20239;-66
2021/11/21 06:13:34;;;;;;;47.83;30.33;;;;;;;-140.05;100.00;61859.38;4877186;29;20205;-66
2021/11/21 06:16:01;;;;;;;48.10;30.45;;;;;;;-140.05;100.00;61859.38;4875044;29;20202;-66
2021/11/21 06:18:28;;;;;;;49.25;31.65;;;;;;;-140.05;100.00;61859.38;4874678;29;20270;-66
2021/11/21 06:20:57;;;;;;;58.72;35.72;;;;;;;-140.05;100.00;61859.38;4876973;29;20206;-66
2021/11/21 06:23:24;;;;;;;80.70;44.20;;;;;;;-140.05;100.00;61859.38;4876916;29;20245;-66
2021/11/21 06:25:51;;;;;;;73.15;43.67;;;;;;;-140.05;100.00;61859.38;4877419;29;20211;-66
2021/11/21 06:28:19;;;;;;;81.60;46.83;;;;;;;-140.05;100.00;61859.38;4876557;29;20819;-65
2021/11/21 06:30:46;;;;;;;80.15;46.03;;;;;;;-140.05;100.00;61859.38;4872270;29;20250;-66
2021/11/21 06:33:13;;;;;;;69.50;42.97;;;;;;;-140.05;100.00;61859.38;4862140;29;20756;-67
2021/11/21 06:35:41;;;;;;;69.55;41.10;;;;;;;-140.05;100.00;61859.38;4867155;29;20214;-65
2021/11/21 06:38:09;;;;;;;74.10;44.88;;;;;;;-140.05;100.00;61859.38;4867199;29;20246;-65
2021/11/21 06:40:37;;;;;;;76.82;47.92;;;;;;;-140.05;100.00;61859.38;4868056;29;20224;-66
2021/11/21 06:43:04;;;;;;;81.22;47.60;;;;;;;-140.05;100.00;61859.38;4868107;29;20205;-66
2021/11/21 06:45:31;;;;;;;89.18;53.53;;;;;;;-140.05;100.00;61859.38;4876197;29;20214;-65
2021/11/21 06:48:01;;;;;;;96.82;57.88;;;;;;;-140.05;100.00;61859.38;4873318;29;20322;-68
2021/11/21 06:50:28;;;;;;;100.90;59.85;;;;;;;-140.05;100.00;61859.38;4876724;29;20213;-66
2021/11/21 06:52:55;;;;;;;114.28;69.78;;;;;;;-140.05;100.00;61859.38;4876833;29;20230;-67
2021/11/21 06:55:22;;;;;;;117.07;74.43;;;;;;;-140.05;100.00;61859.38;4876428;29;20305;-67
2021/11/21 06:57:49;;;;;;;121.80;78.35;;;;;;;-140.05;100.00;61859.38;4876126;29;20682;-67
2021/11/21 07:00:16;;;;;;;113.75;73.07;;;;;;;-140.05;100.00;61859.38;4876593;29;20214;-66
2021/11/21 07:02:44;;;;;;;106.18;67.03;;;;;;;-140.05;100.00;61859.38;4861967;29;20202;-66
2021/11/21 07:05:13;;;;;;;95.80;60.92;;;;;;;-140.05;100.00;61859.38;4865290;29;20226;-68
2021/11/21 07:07:41;;;;;;;81.90;54.63;;;;;;;-140.05;100.00;61859.38;4863108;29;20209;-66
2021/11/21 07:10:08;;;;;;;56.28;40.35;;;;;;;-140.05;100.00;61859.38;4874634;29;20203;-66
2021/11/21 07:12:35;;;;;;;54.15;35.03;;;;;;;-140.05;100.00;61859.38;4874514;29;20241;-67
2021/11/21 07:15:13;;;;;;;59.67;37.08;;;;;;;-140.05;100.00;61859.38;4875644;29;20265;-65
2021/11/21 07:17:41;;;;;;;51.58;34.42;;;;;;;-140.05;100.00;61859.38;4875469;29;20194;-68
2021/11/21 07:20:15;;;;;;;55.72;35.70;;;;;;;-140.05;100.00;61859.38;4876372;29;20210;-66
2021/11/21 07:22:45;;;;;;;55.00;36.50;;;;;;;-140.05;100.00;61859.38;4890136;29;20594;-65
2021/11/21 07:25:13;;;;;;;58.53;38.80;;;;;;;-140.05;100.00;61859.38;4871734;29;20214;-65
2021/11/21 07:27:42;;;;;;;57.97;38.47;;;;;;;-140.05;100.00;61859.38;4899565;29;20578;-64
2021/11/21 07:30:14;;;;;;;61.17;38.38;;;;;;;-140.05;100.00;61859.38;4874243;29;20199;-66
2021/11/21 07:32:42;;;;;;;54.95;36.08;;;;;;;-140.05;100.00;61859.38;4870506;29;20214;-68
2021/11/21 07:35:10;;;;;;;52.47;35.85;;;;;;;-140.05;100.00;61859.38;4874068;29;20681;-65
2021/11/21 07:37:37;;;;;;;49.67;32.00;;;;;;;-140.05;100.00;61859.38;4873587;29;20194;-65
2021/11/21 07:40:05;;;;;;;47.97;32.25;;;;;;;-140.05;100.00;61859.38;4872908;29;20238;-67
2021/11/21 07:42:32;;;;;;;39.85;27.60;;;;;;;-140.05;100.00;61859.38;4873516;29;20587;-66
2021/11/21 07:44:59;;;;;;;40.72;28.25;;;;;;;-140.05;100.00;61859.38;4873811;29;20585;-64
2021/11/21 07:47:27;;;;;;;42.67;29.95;;;;;;;-140.05;100.00;61859.38;4873398;29;20190;-64
2021/11/21 07:49:55;;;;;;;41.08;28.17;;;;;;;-140.05;100.00;61859.38;4873481;29;20706;-65
2021/11/21 07:52:23;;;;;;;34.65;25.13;;;;;;;-140.05;100.00;61859.38;4871208;29;20230;-64
2021/11/21 07:54:49;;;;;;;34.95;23.60;;;;;;;-140.05;100.00;61859.38;4873825;29;20194;-64
2021/11/21 07:57:16;;;;;;;38.00;24.33;;;;;;;-140.05;100.00;61859.38;4873525;29;20210;-65
2021/11/21 07:59:43;;;;;;;40.35;24.40;;;;;;;-140.05;100.00;61859.38;4874048;29;20207;-64
2021/11/21 08:02:11;;;;;;;34.03;23.80;;;;;;;-140.05;100.00;61859.38;4872914;29;20207;-63
2021/11/21 08:04:38;;;;;;;35.63;24.60;;;;;;;-140.05;100.00;61859.38;4873364;29;20222;-64
2021/11/21 08:07:08;;;;;;;42.35;26.27;;;;;;;-140.05;100.00;61859.38;4873268;29;20206;-63
2021/11/21 08:09:35;;;;;;;42.13;27.38;;;;;;;-140.05;100.00;61859.38;4887809;29;20195;-63
2021/11/21 08:12:05;;;;;;;40.27;26.60;;;;;;;-140.05;100.00;61859.38;4874476;29;20258;-62
2021/11/21 08:14:32;;;;;;;48.60;29.58;;;;;;;-140.05;100.00;61859.38;4877431;29;20975;-63
2021/11/21 08:16:59;;;;;;;41.17;29.60;;;;;;;-140.05;100.00;61859.38;4876926;29;20757;-62
2021/11/21 08:19:26;;;;;;;42.65;28.25;;;;;;;-140.05;100.00;61859.38;4877479;29;20266;-62
2021/11/21 08:21:53;;;;;;;34.17;24.70;;;;;;;-140.05;100.00;61859.38;4877142;29;20226;-63
2021/11/21 08:24:20;;;;;;;33.83;24.13;;;;;;;-140.05;100.00;61859.38;4877306;29;20394;-63
2021/11/21 08:26:47;;;;;;;38.57;26.17;;;;;;;-140.05;100.00;61859.38;4876541;29;21008;-63
2021/11/21 08:29:14;;;;;;;36.78;24.35;;;;;;;-140.05;100.00;61859.38;4877091;29;20447;-63
2021/11/21 08:31:57;;;;;;;33.80;22.70;;;;;;;-140.05;100.00;61859.38;4874477;29;20212;-62
2021/11/21 08:34:26;;;;;;;30.40;22.27;;;;;;;-140.05;100.00;61859.38;4877152;29;20975;-63
2021/11/21 08:36:53;;;;;;;34.57;23.80;;;;;;;-140.05;100.00;61859.38;4876132;29;20451;-63
2021/11/21 08:39:21;;;;;;;33.43;23.77;;;;;;;-140.05;100.00;61859.38;4876536;29;20481;-61
2021/11/21 08:41:50;;;;;;;44.27;30.97;;;;;;;-140.05;100.00;61859.38;4874294;29;20466;-62
2021/11/21 08:44:18;;;;;;;51.60;32.23;;;;;;;-140.05;100.00;61859.38;4876996;29;20530;-62
2021/11/21 08:46:46;;;;;;;35.43;24.67;;;;;;;-140.05;100.00;61859.38;4876267;29;20451;-63
2021/11/21 08:49:14;;;;;;;31.73;23.33;;;;;;;-140.05;100.00;61859.38;4906259;29;20451;-63
2021/11/21 08:51:43;;;;;;;35.23;24.73;;;;;;;-140.05;100.00;61859.38;4876673;29;20950;-63
2021/11/21 08:54:11;;;;;;;33.00;23.17;;;;;;;-140.05;100.00;61859.38;4877158;29;20450;-65
2021/11/21 08:56:38;;;;;;;29.40;21.77;;;;;;;-140.05;100.00;61859.38;4872783;29;20473;-62
2021/11/21 08:59:05;;;;;;;30.83;21.83;;;;;;;-140.05;100.00;61859.38;4875785;29;20486;-62
2021/11/21 09:01:33;;;;;;;30.73;21.87;;;;;;;-140.05;100.00;61859.38;4863852;29;20580;-62
2021/11/21 09:04:00;;;;;;;30.17;21.77;;;;;;;-140.05;100.00;61859.38;4865976;29;20505;-63
2021/11/21 09:06:27;;;;;;;95.40;70.50;;;;;;;-140.05;100.00;61859.38;4864226;29;20554;-62
2021/11/21 09:08:56;;;;;;;79.67;55.10;;;;;;;-140.05;100.00;61859.38;4871921;29;20907;-60
2021/11/21 09:11:24;;;;;;;30.07;21.97;;;;;;;-140.05;100.00;61859.38;4876351;29;20490;-63
2021/11/21 09:13:53;;;;;;;32.47;21.83;;;;;;;-140.05;100.00;61859.38;4875677;29;20463;-65
2021/11/21 09:16:20;;;;;;;28.57;20.77;;;;;;;-140.05;100.00;61859.38;4876560;29;20450;-65
2021/11/21 09:18:47;;;;;;;27.00;20.53;;;;;;;-140.05;100.00;61859.38;4877921;29;20454;-63
2021/11/21 09:21:14;;;;;;;32.50;21.90;;;;;;;-140.05;100.00;61859.38;4878227;29;20457;-67
2021/11/21 09:23:42;;;;;;;29.97;22.87;;;;;;;-140.05;100.00;61859.38;4876628;29;20477;-67
2021/11/21 09:26:09;;;;;;;30.23;22.87;;;;;;;-140.05;100.00;61859.38;4877725;29;20439;-69
2021/11/21 09:28:36;;;;;;;32.67;24.67;;;;;;;-140.05;100.00;61859.38;4877505;29;20505;-67
2021/11/21 09:31:04;;;;;;;37.60;25.73;;;;;;;-140.05;100.00;61859.38;4876747;29;20966;-64
2021/11/21 09:33:31;;;;;;;45.53;26.87;;;;;;;-140.05;100.00;61859.38;4875259;29;20451;-68
2021/11/21 09:35:59;;;;;;;35.50;25.07;;;;;;;-140.05;100.00;61859.38;4875468;29;20492;-73
2021/11/21 09:38:27;;;;;;;32.93;25.07;;;;;;;-140.05;100.00;61859.38;4875713;29;20573;-65
2021/11/21 09:40:55;;;;;;;34.80;25.60;;;;;;;-140.05;100.00;61859.38;4875258;29;20454;-65
2021/11/21 09:43:22;;;;;;;29.57;22.97;;;;;;;-140.05;100.00;61859.38;4875917;29;20455;-65
2021/11/21 09:45:49;;;;;;;33.50;23.20;;;;;;;-140.05;100.00;61859.38;4875001;29;20577;-67
2021/11/21 09:48:16;;;;;;;27.87;22.50;;;;;;;-140.05;100.00;61859.38;4877034;29;20451;-69
2021/11/21 09:50:44;;;;;;;25.73;20.53;;;;;;;-140.05;100.00;61859.38;4877795;29;20478;-68
2021/11/21 09:53:13;;;;;;;24.27;19.33;;;;;;;-140.05;100.00;61859.38;4877340;29;20542;-67
2021/11/21 09:55:40;;;;;;;21.63;17.70;;;;;;;-140.05;100.00;61859.38;4877740;29;20455;-69
2021/11/21 09:58:07;;;;;;;26.07;19.93;;;;;;;-140.05;100.00;61859.38;4877133;29;20450;-68
2021/11/21 10:00:35;;;;;;;25.17;19.47;;;;;;;-140.05;100.00;61859.38;4877590;29;20455;-71
2021/11/21 10:03:08;;;;;;;22.67;18.30;;;;;;;-140.05;100.00;61859.38;4862192;29;20443;-65
2021/11/21 10:05:39;;;;;;;23.90;16.90;;;;;;;-140.05;100.00;61859.38;4876997;29;20483;-69
2021/11/21 10:08:11;;;;;;;21.67;16.93;;;;;;;-140.05;100.00;61859.38;4877363;29;20465;-66
2021/11/21 10:10:38;;;;;;;27.33;16.10;;;;;;;-140.05;100.00;61859.38;4877596;29;20465;-67
2021/11/21 10:13:40;;;;;;;21.17;16.03;;;;;;;-140.05;100.00;61859.38;4861582;29;20985;-70
2021/11/21 10:16:18;;;;;;;17.87;13.67;;;;;;;-140.05;100.00;61859.38;4877226;29;20494;-69
2021/11/21 10:18:51;;;;;;;17.00;14.13;;;;;;;-140.05;100.00;61859.38;4876626;29;20851;-67
2021/11/21 10:21:20;;;;;;;16.60;14.47;;;;;;;-140.05;100.00;61859.38;4891655;29;20975;-69
2021/11/21 10:23:48;;;;;;;16.80;15.00;;;;;;;-140.05;100.00;61859.38;4877195;29;20458;-67
2021/11/21 10:26:23;;;;;;;19.97;15.73;;;;;;;-140.05;100.00;61859.38;4877369;29;20475;-70
2021/11/21 10:28:52;;;;;;;18.63;15.70;;;;;;;-140.05;100.00;61859.38;4877132;29;20973;-69
2021/11/21 10:31:22;;;;;;;20.47;16.50;;;;;;;-140.05;100.00;61859.38;4878070;29;20519;-68
2021/11/21 10:33:55;;;;;;;19.40;16.80;;;;;;;-140.05;100.00;61859.38;4877103;29;20495;-68
2021/11/21 10:36:28;;;;;;;20.50;17.23;;;;;;;-140.05;100.00;61859.38;4876683;29;20479;-68
2021/11/21 10:39:00;;;;;;;19.53;16.90;;;;;;;-140.05;100.00;61859.38;4876662;29;20490;-66
2021/11/21 10:41:33;;;;;;;23.90;17.47;;;;;;;-140.05;100.00;61859.38;4879818;29;20871;-66
2021/11/21 10:44:05;;;;;;;25.30;17.77;;;;;;;-140.05;100.00;61859.38;4878743;29;20443;-69
2021/11/21 10:46:53;;;;;;;21.97;17.90;;;;;;;-140.05;100.00;61859.38;4878588;29;20454;-68
2021/11/21 10:49:28;;;;;;;24.53;18.13;;;;;;;-140.05;100.00;61859.38;4877725;29;20447;-66
2021/11/21 10:51:57;;;;;;;23.97;19.33;;;;;;;-140.05;100.00;61859.38;4876747;29;20443;-65
2021/11/21 10:54:29;;;;;;;25.60;19.83;;;;;;;-140.05;100.00;61859.38;4876934;29;20450;-65
2021/11/21 10:56:58;;;;;;;24.63;20.37;;;;;;;-140.05;100.00;61859.38;4876695;29;20463;-64
2021/11/21 10:59:41;;;;;;;26.07;20.67;;;;;;;-140.05;100.00;61859.38;4871852;29;20451;-68